sensor_id;sensor_type;location;lat;lon;timestamp;P1;durP1;ratioP1;P2;durP2;ratioP2
8978;SDS011;4524;51.364;5.448;2022-11-13T00:01:13;18.07;;;14.97;;
8978;SDS011;4524;51.364;5.448;2022-11-13T00:04:01;17.73;;;14.67;;
8978;SDS011;4524;51.364;5.448;2022-11-13T00:06:47;16.27;;;14.40;;
8978;SDS011;4524;51.364;5.448;2022-11-13T00:09:43;17.57;;;14.60;;
8978;SDS011;4524;51.364;5.448;2022-11-13T00:12:29;16.90;;;13.63;;
8978;SDS011;4524;51.364;5.448;2022-11-13T00:15:15;16.17;;;13.87;;
8978;SDS011;4524;51.364;5.448;2022-11-13T00:18:02;19.27;;;14.20;;
8978;SDS011;4524;51.364;5.448;2022-11-13T00:20:49;17.43;;;13.83;;
8978;SDS011;4524;51.364;5.448;2022-11-13T00:23:35;16.63;;;14.00;;
8978;SDS011;4524;51.364;5.448;2022-11-13T00:26:27;20.03;;;14.80;;
8978;SDS011;4524;51.364;5.448;2022-11-13T00:29:15;20.37;;;13.63;;
8978;SDS011;4524;51.364;5.448;2022-11-13T00:32:02;20.47;;;15.10;;
8978;SDS011;4524;51.364;5.448;2022-11-13T00:34:49;16.27;;;13.33;;
8978;SDS011;4524;51.364;5.448;2022-11-13T00:37:35;14.57;;;13.07;;
8978;SDS011;4524;51.364;5.448;2022-11-13T00:40:22;19.43;;;15.70;;
8978;SDS011;4524;51.364;5.448;2022-11-13T00:43:09;18.03;;;14.97;;
8978;SDS011;4524;51.364;5.448;2022-11-13T00:45:56;18.10;;;15.27;;
8978;SDS011;4524;51.364;5.448;2022-11-13T00:48:43;16.30;;;14.37;;
8978;SDS011;4524;51.364;5.448;2022-11-13T00:51:30;16.67;;;14.23;;
8978;SDS011;4524;51.364;5.448;2022-11-13T00:54:17;17.37;;;15.10;;
8978;SDS011;4524;51.364;5.448;2022-11-13T00:57:03;17.77;;;14.57;;
8978;SDS011;4524;51.364;5.448;2022-11-13T00:59:51;18.07;;;14.23;;
8978;SDS011;4524;51.364;5.448;2022-11-13T01:02:37;21.13;;;15.57;;
8978;SDS011;4524;51.364;5.448;2022-11-13T01:05:24;15.97;;;13.43;;
8978;SDS011;4524;51.364;5.448;2022-11-13T01:08:11;15.97;;;13.03;;
8978;SDS011;4524;51.364;5.448;2022-11-13T01:10:59;15.07;;;13.00;;
8978;SDS011;4524;51.364;5.448;2022-11-13T01:13:46;13.80;;;12.23;;
8978;SDS011;4524;51.364;5.448;2022-11-13T01:16:35;14.50;;;13.00;;
8978;SDS011;4524;51.364;5.448;2022-11-13T01:19:21;15.07;;;12.40;;
8978;SDS011;4524;51.364;5.448;2022-11-13T01:22:08;15.43;;;12.87;;
8978;SDS011;4524;51.364;5.448;2022-11-13T01:24:54;16.33;;;12.83;;
8978;SDS011;4524;51.364;5.448;2022-11-13T01:27:40;17.03;;;13.53;;
8978;SDS011;4524;51.364;5.448;2022-11-13T01:30:27;14.93;;;13.03;;
8978;SDS011;4524;51.364;5.448;2022-11-13T01:33:15;16.10;;;13.77;;
8978;SDS011;4524;51.364;5.448;2022-11-13T01:36:02;15.73;;;11.83;;
8978;SDS011;4524;51.364;5.448;2022-11-13T01:38:50;14.73;;;13.17;;
8978;SDS011;4524;51.364;5.448;2022-11-13T01:41:37;14.60;;;13.00;;
8978;SDS011;4524;51.364;5.448;2022-11-13T01:44:24;15.70;;;13.07;;
8978;SDS011;4524;51.364;5.448;2022-11-13T01:47:10;17.67;;;12.97;;
8978;SDS011;4524;51.364;5.448;2022-11-13T01:49:59;17.67;;;13.90;;
8978;SDS011;4524;51.364;5.448;2022-11-13T01:52:47;16.00;;;12.27;;
8978;SDS011;4524;51.364;5.448;2022-11-13T01:55:33;14.37;;;12.60;;
8978;SDS011;4524;51.364;5.448;2022-11-13T01:58:20;15.43;;;13.20;;
8978;SDS011;4524;51.364;5.448;2022-11-13T02:01:06;14.40;;;12.40;;
8978;SDS011;4524;51.364;5.448;2022-11-13T02:03:52;13.83;;;12.10;;
8978;SDS011;4524;51.364;5.448;2022-11-13T02:06:41;14.73;;;13.03;;
8978;SDS011;4524;51.364;5.448;2022-11-13T02:09:32;13.37;;;11.50;;
8978;SDS011;4524;51.364;5.448;2022-11-13T02:12:23;12.53;;;11.13;;
8978;SDS011;4524;51.364;5.448;2022-11-13T02:15:14;14.73;;;12.97;;
8978;SDS011;4524;51.364;5.448;2022-11-13T02:18:02;15.83;;;13.30;;
8978;SDS011;4524;51.364;5.448;2022-11-13T02:20:50;15.87;;;13.67;;
8978;SDS011;4524;51.364;5.448;2022-11-13T02:23:47;15.47;;;13.57;;
8978;SDS011;4524;51.364;5.448;2022-11-13T02:26:39;16.80;;;13.00;;
8978;SDS011;4524;51.364;5.448;2022-11-13T02:29:27;15.00;;;13.27;;
8978;SDS011;4524;51.364;5.448;2022-11-13T02:32:13;14.27;;;11.13;;
8978;SDS011;4524;51.364;5.448;2022-11-13T02:35:00;14.43;;;11.73;;
8978;SDS011;4524;51.364;5.448;2022-11-13T02:37:46;14.97;;;11.73;;
8978;SDS011;4524;51.364;5.448;2022-11-13T02:40:33;12.90;;;11.20;;
8978;SDS011;4524;51.364;5.448;2022-11-13T02:43:21;14.00;;;12.17;;
8978;SDS011;4524;51.364;5.448;2022-11-13T02:46:07;13.03;;;10.90;;
8978;SDS011;4524;51.364;5.448;2022-11-13T02:48:54;13.50;;;11.93;;
8978;SDS011;4524;51.364;5.448;2022-11-13T02:51:40;14.53;;;11.83;;
8978;SDS011;4524;51.364;5.448;2022-11-13T02:54:27;11.80;;;10.53;;
8978;SDS011;4524;51.364;5.448;2022-11-13T02:57:13;14.63;;;12.23;;
8978;SDS011;4524;51.364;5.448;2022-11-13T03:00:02;15.07;;;11.60;;
8978;SDS011;4524;51.364;5.448;2022-11-13T03:02:57;12.50;;;10.80;;
8978;SDS011;4524;51.364;5.448;2022-11-13T03:05:46;14.23;;;10.47;;
8978;SDS011;4524;51.364;5.448;2022-11-13T03:08:34;11.97;;;10.47;;
8978;SDS011;4524;51.364;5.448;2022-11-13T03:11:21;15.60;;;11.70;;
8978;SDS011;4524;51.364;5.448;2022-11-13T03:14:07;12.20;;;10.63;;
8978;SDS011;4524;51.364;5.448;2022-11-13T03:16:56;11.93;;;10.63;;
8978;SDS011;4524;51.364;5.448;2022-11-13T03:19:42;13.83;;;10.60;;
8978;SDS011;4524;51.364;5.448;2022-11-13T03:22:29;12.83;;;11.17;;
8978;SDS011;4524;51.364;5.448;2022-11-13T03:25:15;11.10;;;9.80;;
8978;SDS011;4524;51.364;5.448;2022-11-13T03:28:02;12.87;;;10.60;;
8978;SDS011;4524;51.364;5.448;2022-11-13T03:30:48;12.53;;;9.87;;
8978;SDS011;4524;51.364;5.448;2022-11-13T03:33:36;12.03;;;9.50;;
8978;SDS011;4524;51.364;5.448;2022-11-13T03:36:23;11.27;;;10.03;;
8978;SDS011;4524;51.364;5.448;2022-11-13T03:39:10;12.17;;;9.20;;
8978;SDS011;4524;51.364;5.448;2022-11-13T03:41:57;11.20;;;10.00;;
8978;SDS011;4524;51.364;5.448;2022-11-13T03:44:43;10.73;;;9.53;;
8978;SDS011;4524;51.364;5.448;2022-11-13T03:47:29;10.60;;;9.13;;
8978;SDS011;4524;51.364;5.448;2022-11-13T03:50:18;11.33;;;10.13;;
8978;SDS011;4524;51.364;5.448;2022-11-13T03:53:04;11.30;;;9.27;;
8978;SDS011;4524;51.364;5.448;2022-11-13T03:55:50;13.37;;;9.87;;
8978;SDS011;4524;51.364;5.448;2022-11-13T03:58:37;11.30;;;9.40;;
8978;SDS011;4524;51.364;5.448;2022-11-13T04:01:24;9.57;;;8.43;;
8978;SDS011;4524;51.364;5.448;2022-11-13T04:04:10;9.97;;;8.83;;
8978;SDS011;4524;51.364;5.448;2022-11-13T04:06:58;12.13;;;8.73;;
8978;SDS011;4524;51.364;5.448;2022-11-13T04:09:45;10.60;;;8.60;;
8978;SDS011;4524;51.364;5.448;2022-11-13T04:12:31;12.80;;;8.83;;
8978;SDS011;4524;51.364;5.448;2022-11-13T04:15:17;11.10;;;9.20;;
8978;SDS011;4524;51.364;5.448;2022-11-13T04:18:04;9.23;;;8.03;;
8978;SDS011;4524;51.364;5.448;2022-11-13T04:20:50;11.03;;;9.33;;
8978;SDS011;4524;51.364;5.448;2022-11-13T04:23:38;10.07;;;8.57;;
8978;SDS011;4524;51.364;5.448;2022-11-13T04:26:25;11.47;;;8.50;;
8978;SDS011;4524;51.364;5.448;2022-11-13T04:29:12;9.50;;;8.37;;
8978;SDS011;4524;51.364;5.448;2022-11-13T04:31:59;10.03;;;8.20;;
8978;SDS011;4524;51.364;5.448;2022-11-13T04:34:45;12.27;;;9.33;;
8978;SDS011;4524;51.364;5.448;2022-11-13T04:37:32;10.90;;;8.87;;
8978;SDS011;4524;51.364;5.448;2022-11-13T04:40:20;9.53;;;8.50;;
8978;SDS011;4524;51.364;5.448;2022-11-13T04:43:06;11.07;;;9.27;;
8978;SDS011;4524;51.364;5.448;2022-11-13T04:45:52;10.47;;;8.37;;
8978;SDS011;4524;51.364;5.448;2022-11-13T04:48:38;10.77;;;9.03;;
8978;SDS011;4524;51.364;5.448;2022-11-13T04:51:24;11.53;;;8.60;;
8978;SDS011;4524;51.364;5.448;2022-11-13T04:54:11;10.83;;;8.83;;
8978;SDS011;4524;51.364;5.448;2022-11-13T04:56:59;10.33;;;8.63;;
8978;SDS011;4524;51.364;5.448;2022-11-13T04:59:45;10.07;;;8.90;;
8978;SDS011;4524;51.364;5.448;2022-11-13T05:02:32;9.53;;;8.43;;
8978;SDS011;4524;51.364;5.448;2022-11-13T05:05:18;8.73;;;7.83;;
8978;SDS011;4524;51.364;5.448;2022-11-13T05:08:05;10.87;;;8.87;;
8978;SDS011;4524;51.364;5.448;2022-11-13T05:10:51;8.87;;;8.07;;
8978;SDS011;4524;51.364;5.448;2022-11-13T05:13:39;11.10;;;8.70;;
8978;SDS011;4524;51.364;5.448;2022-11-13T05:16:25;11.53;;;9.50;;
8978;SDS011;4524;51.364;5.448;2022-11-13T05:19:12;9.37;;;8.27;;
8978;SDS011;4524;51.364;5.448;2022-11-13T05:21:59;9.90;;;8.90;;
8978;SDS011;4524;51.364;5.448;2022-11-13T05:24:45;11.07;;;8.30;;
8978;SDS011;4524;51.364;5.448;2022-11-13T05:27:32;9.33;;;7.93;;
8978;SDS011;4524;51.364;5.448;2022-11-13T05:30:20;9.90;;;8.60;;
8978;SDS011;4524;51.364;5.448;2022-11-13T05:33:06;10.17;;;8.77;;
8978;SDS011;4524;51.364;5.448;2022-11-13T05:35:53;10.50;;;8.70;;
8978;SDS011;4524;51.364;5.448;2022-11-13T05:38:40;9.70;;;8.70;;
8978;SDS011;4524;51.364;5.448;2022-11-13T05:41:28;11.67;;;8.60;;
8978;SDS011;4524;51.364;5.448;2022-11-13T05:44:14;11.13;;;8.63;;
8978;SDS011;4524;51.364;5.448;2022-11-13T05:47:02;11.80;;;8.70;;
8978;SDS011;4524;51.364;5.448;2022-11-13T05:49:48;10.03;;;8.80;;
8978;SDS011;4524;51.364;5.448;2022-11-13T05:52:35;10.03;;;8.97;;
8978;SDS011;4524;51.364;5.448;2022-11-13T05:55:21;9.93;;;8.00;;
8978;SDS011;4524;51.364;5.448;2022-11-13T05:58:08;9.17;;;7.70;;
8978;SDS011;4524;51.364;5.448;2022-11-13T06:01:03;9.27;;;7.73;;
8978;SDS011;4524;51.364;5.448;2022-11-13T06:03:53;10.53;;;8.57;;
8978;SDS011;4524;51.364;5.448;2022-11-13T06:06:40;9.47;;;8.30;;
8978;SDS011;4524;51.364;5.448;2022-11-13T06:09:27;12.90;;;8.40;;
8978;SDS011;4524;51.364;5.448;2022-11-13T06:12:14;8.67;;;7.80;;
8978;SDS011;4524;51.364;5.448;2022-11-13T06:15:00;9.47;;;8.57;;
8978;SDS011;4524;51.364;5.448;2022-11-13T06:17:47;11.47;;;8.33;;
8978;SDS011;4524;51.364;5.448;2022-11-13T06:20:35;9.70;;;8.70;;
8978;SDS011;4524;51.364;5.448;2022-11-13T06:23:22;8.80;;;7.90;;
8978;SDS011;4524;51.364;5.448;2022-11-13T06:26:09;11.15;;;10.02;;
8978;SDS011;4524;51.364;5.448;2022-11-13T06:28:58;12.50;;;10.13;;
8978;SDS011;4524;51.364;5.448;2022-11-13T06:31:46;13.37;;;10.03;;
8978;SDS011;4524;51.364;5.448;2022-11-13T06:34:32;11.03;;;9.10;;
8978;SDS011;4524;51.364;5.448;2022-11-13T06:37:20;10.07;;;8.20;;
8978;SDS011;4524;51.364;5.448;2022-11-13T06:40:07;10.53;;;8.43;;
8978;SDS011;4524;51.364;5.448;2022-11-13T06:42:54;11.83;;;9.97;;
8978;SDS011;4524;51.364;5.448;2022-11-13T06:45:41;13.57;;;10.07;;
8978;SDS011;4524;51.364;5.448;2022-11-13T06:48:27;12.27;;;9.73;;
8978;SDS011;4524;51.364;5.448;2022-11-13T06:51:14;11.00;;;9.00;;
8978;SDS011;4524;51.364;5.448;2022-11-13T06:54:03;12.07;;;9.67;;
8978;SDS011;4524;51.364;5.448;2022-11-13T06:56:50;11.47;;;9.30;;
8978;SDS011;4524;51.364;5.448;2022-11-13T06:59:37;12.80;;;9.00;;
8978;SDS011;4524;51.364;5.448;2022-11-13T07:02:23;12.63;;;10.40;;
8978;SDS011;4524;51.364;5.448;2022-11-13T07:05:10;10.90;;;8.93;;
8978;SDS011;4524;51.364;5.448;2022-11-13T07:07:56;10.77;;;8.70;;
8978;SDS011;4524;51.364;5.448;2022-11-13T07:10:50;11.17;;;9.77;;
8978;SDS011;4524;51.364;5.448;2022-11-13T07:13:37;11.57;;;10.33;;
8978;SDS011;4524;51.364;5.448;2022-11-13T07:16:24;12.93;;;8.77;;
8978;SDS011;4524;51.364;5.448;2022-11-13T07:19:28;11.83;;;9.33;;
8978;SDS011;4524;51.364;5.448;2022-11-13T07:22:15;10.07;;;8.03;;
8978;SDS011;4524;51.364;5.448;2022-11-13T07:25:01;8.90;;;7.77;;
8978;SDS011;4524;51.364;5.448;2022-11-13T07:27:49;10.10;;;7.70;;
8978;SDS011;4524;51.364;5.448;2022-11-13T07:30:36;10.33;;;8.13;;
8978;SDS011;4524;51.364;5.448;2022-11-13T07:33:22;8.93;;;8.03;;
8978;SDS011;4524;51.364;5.448;2022-11-13T07:36:08;10.47;;;7.80;;
8978;SDS011;4524;51.364;5.448;2022-11-13T07:38:55;9.03;;;8.10;;
8978;SDS011;4524;51.364;5.448;2022-11-13T07:41:45;9.67;;;8.27;;
8978;SDS011;4524;51.364;5.448;2022-11-13T07:44:33;9.27;;;7.80;;
8978;SDS011;4524;51.364;5.448;2022-11-13T07:47:40;9.67;;;8.17;;
8978;SDS011;4524;51.364;5.448;2022-11-13T07:50:26;10.23;;;8.20;;
8978;SDS011;4524;51.364;5.448;2022-11-13T07:53:15;9.87;;;7.80;;
8978;SDS011;4524;51.364;5.448;2022-11-13T07:56:02;9.70;;;7.93;;
8978;SDS011;4524;51.364;5.448;2022-11-13T07:58:49;9.70;;;7.40;;
8978;SDS011;4524;51.364;5.448;2022-11-13T08:01:37;9.50;;;8.03;;
8978;SDS011;4524;51.364;5.448;2022-11-13T08:04:24;9.27;;;7.90;;
8978;SDS011;4524;51.364;5.448;2022-11-13T08:07:10;9.57;;;7.93;;
8978;SDS011;4524;51.364;5.448;2022-11-13T08:09:57;9.20;;;7.97;;
8978;SDS011;4524;51.364;5.448;2022-11-13T08:12:44;10.10;;;8.00;;
8978;SDS011;4524;51.364;5.448;2022-11-13T08:15:31;9.63;;;7.80;;
8978;SDS011;4524;51.364;5.448;2022-11-13T08:18:19;9.23;;;7.90;;
8978;SDS011;4524;51.364;5.448;2022-11-13T08:21:06;9.63;;;8.67;;
8978;SDS011;4524;51.364;5.448;2022-11-13T08:23:58;10.53;;;7.80;;
8978;SDS011;4524;51.364;5.448;2022-11-13T08:26:45;9.43;;;8.10;;
8978;SDS011;4524;51.364;5.448;2022-11-13T08:29:32;9.60;;;7.60;;
8978;SDS011;4524;51.364;5.448;2022-11-13T08:32:21;9.20;;;8.20;;
8978;SDS011;4524;51.364;5.448;2022-11-13T08:35:09;9.77;;;8.20;;
8978;SDS011;4524;51.364;5.448;2022-11-13T08:38:02;8.87;;;7.90;;
8978;SDS011;4524;51.364;5.448;2022-11-13T08:40:50;8.67;;;7.70;;
8978;SDS011;4524;51.364;5.448;2022-11-13T08:43:37;10.47;;;7.87;;
8978;SDS011;4524;51.364;5.448;2022-11-13T08:46:23;9.63;;;8.03;;
8978;SDS011;4524;51.364;5.448;2022-11-13T08:49:10;8.77;;;7.87;;
8978;SDS011;4524;51.364;5.448;2022-11-13T08:51:58;9.80;;;7.50;;
8978;SDS011;4524;51.364;5.448;2022-11-13T08:54:44;8.77;;;7.60;;
8978;SDS011;4524;51.364;5.448;2022-11-13T08:57:31;8.77;;;7.87;;
8978;SDS011;4524;51.364;5.448;2022-11-13T09:00:17;9.53;;;7.77;;
8978;SDS011;4524;51.364;5.448;2022-11-13T09:03:05;8.33;;;7.53;;
8978;SDS011;4524;51.364;5.448;2022-11-13T09:05:53;9.13;;;8.13;;
8978;SDS011;4524;51.364;5.448;2022-11-13T09:08:41;9.60;;;7.97;;
8978;SDS011;4524;51.364;5.448;2022-11-13T09:11:28;9.73;;;8.40;;
8978;SDS011;4524;51.364;5.448;2022-11-13T09:14:32;9.70;;;8.30;;
8978;SDS011;4524;51.364;5.448;2022-11-13T09:17:19;8.57;;;7.77;;
8978;SDS011;4524;51.364;5.448;2022-11-13T09:20:05;13.03;;;8.40;;
8978;SDS011;4524;51.364;5.448;2022-11-13T09:22:57;8.23;;;7.43;;
8978;SDS011;4524;51.364;5.448;2022-11-13T09:25:46;9.40;;;8.40;;
8978;SDS011;4524;51.364;5.448;2022-11-13T09:28:34;9.33;;;7.30;;
8978;SDS011;4524;51.364;5.448;2022-11-13T09:31:20;8.53;;;7.40;;
8978;SDS011;4524;51.364;5.448;2022-11-13T09:34:07;7.47;;;6.77;;
8978;SDS011;4524;51.364;5.448;2022-11-13T09:36:54;8.67;;;7.77;;
8978;SDS011;4524;51.364;5.448;2022-11-13T09:39:40;9.20;;;7.07;;
8978;SDS011;4524;51.364;5.448;2022-11-13T09:42:28;8.53;;;7.07;;
8978;SDS011;4524;51.364;5.448;2022-11-13T09:45:16;8.70;;;7.47;;
8978;SDS011;4524;51.364;5.448;2022-11-13T09:48:06;8.93;;;6.80;;
8978;SDS011;4524;51.364;5.448;2022-11-13T09:51:00;7.30;;;6.60;;
8978;SDS011;4524;51.364;5.448;2022-11-13T09:53:51;10.20;;;7.00;;
8978;SDS011;4524;51.364;5.448;2022-11-13T09:56:38;7.70;;;6.90;;
8978;SDS011;4524;51.364;5.448;2022-11-13T09:59:30;8.93;;;7.13;;
8978;SDS011;4524;51.364;5.448;2022-11-13T10:02:20;9.43;;;6.93;;
8978;SDS011;4524;51.364;5.448;2022-11-13T10:05:12;8.23;;;7.43;;
8978;SDS011;4524;51.364;5.448;2022-11-13T10:08:09;8.17;;;7.23;;
8978;SDS011;4524;51.364;5.448;2022-11-13T10:11:01;7.37;;;6.47;;
8978;SDS011;4524;51.364;5.448;2022-11-13T10:13:56;8.03;;;6.87;;
8978;SDS011;4524;51.364;5.448;2022-11-13T10:16:50;7.53;;;6.80;;
8978;SDS011;4524;51.364;5.448;2022-11-13T10:19:40;7.53;;;6.83;;
8978;SDS011;4524;51.364;5.448;2022-11-13T10:22:32;9.03;;;6.20;;
8978;SDS011;4524;51.364;5.448;2022-11-13T10:25:22;9.37;;;6.97;;
8978;SDS011;4524;51.364;5.448;2022-11-13T10:28:15;7.37;;;6.17;;
8978;SDS011;4524;51.364;5.448;2022-11-13T10:31:23;7.13;;;6.43;;
8978;SDS011;4524;51.364;5.448;2022-11-13T10:34:11;9.27;;;6.27;;
8978;SDS011;4524;51.364;5.448;2022-11-13T10:37:02;6.93;;;6.33;;
8978;SDS011;4524;51.364;5.448;2022-11-13T10:40:02;8.70;;;6.30;;
8978;SDS011;4524;51.364;5.448;2022-11-13T10:42:49;7.40;;;6.10;;
8978;SDS011;4524;51.364;5.448;2022-11-13T10:45:35;6.87;;;5.97;;
8978;SDS011;4524;51.364;5.448;2022-11-13T10:48:24;8.73;;;6.23;;
8978;SDS011;4524;51.364;5.448;2022-11-13T10:51:20;10.70;;;6.13;;
8978;SDS011;4524;51.364;5.448;2022-11-13T10:54:19;7.03;;;6.00;;
8978;SDS011;4524;51.364;5.448;2022-11-13T10:57:16;5.37;;;4.87;;
8978;SDS011;4524;51.364;5.448;2022-11-13T11:00:20;6.63;;;4.80;;
8978;SDS011;4524;51.364;5.448;2022-11-13T11:03:12;5.77;;;5.17;;
8978;SDS011;4524;51.364;5.448;2022-11-13T11:06:00;7.63;;;6.10;;
8978;SDS011;4524;51.364;5.448;2022-11-13T11:08:49;6.83;;;5.77;;
8978;SDS011;4524;51.364;5.448;2022-11-13T11:11:35;5.50;;;4.37;;
8978;SDS011;4524;51.364;5.448;2022-11-13T11:14:40;4.83;;;4.33;;
8978;SDS011;4524;51.364;5.448;2022-11-13T11:17:40;5.10;;;4.60;;
8978;SDS011;4524;51.364;5.448;2022-11-13T11:20:42;5.83;;;4.57;;
8978;SDS011;4524;51.364;5.448;2022-11-13T11:23:35;7.87;;;6.37;;
8978;SDS011;4524;51.364;5.448;2022-11-13T11:26:29;5.47;;;4.97;;
8978;SDS011;4524;51.364;5.448;2022-11-13T11:29:20;4.57;;;4.17;;
8978;SDS011;4524;51.364;5.448;2022-11-13T11:32:14;7.77;;;6.97;;
8978;SDS011;4524;51.364;5.448;2022-11-13T11:35:07;4.97;;;4.50;;
8978;SDS011;4524;51.364;5.448;2022-11-13T11:38:01;5.07;;;4.57;;
8978;SDS011;4524;51.364;5.448;2022-11-13T11:40:53;6.47;;;4.83;;
8978;SDS011;4524;51.364;5.448;2022-11-13T11:43:50;6.77;;;6.17;;
8978;SDS011;4524;51.364;5.448;2022-11-13T11:46:46;9.23;;;7.87;;
8978;SDS011;4524;51.364;5.448;2022-11-13T11:49:32;7.43;;;6.73;;
8978;SDS011;4524;51.364;5.448;2022-11-13T11:55:53;6.77;;;6.07;;
8978;SDS011;4524;51.364;5.448;2022-11-13T11:59:07;8.33;;;6.50;;
8978;SDS011;4524;51.364;5.448;2022-11-13T12:02:17;8.87;;;6.40;;
8978;SDS011;4524;51.364;5.448;2022-11-13T12:05:23;6.40;;;5.47;;
8978;SDS011;4524;51.364;5.448;2022-11-13T12:08:18;7.13;;;5.93;;
8978;SDS011;4524;51.364;5.448;2022-11-13T12:11:16;4.13;;;3.73;;
8978;SDS011;4524;51.364;5.448;2022-11-13T12:14:12;4.27;;;3.87;;
8978;SDS011;4524;51.364;5.448;2022-11-13T12:17:10;6.47;;;5.07;;
8978;SDS011;4524;51.364;5.448;2022-11-13T12:20:10;5.17;;;4.07;;
8978;SDS011;4524;51.364;5.448;2022-11-13T12:23:10;5.90;;;4.27;;
8978;SDS011;4524;51.364;5.448;2022-11-13T12:26:17;4.80;;;4.30;;
8978;SDS011;4524;51.364;5.448;2022-11-13T12:29:16;6.83;;;5.03;;
8978;SDS011;4524;51.364;5.448;2022-11-13T12:32:18;5.13;;;4.47;;
8978;SDS011;4524;51.364;5.448;2022-11-13T12:35:14;4.80;;;4.30;;
8978;SDS011;4524;51.364;5.448;2022-11-13T12:38:05;4.73;;;4.30;;
8978;SDS011;4524;51.364;5.448;2022-11-13T12:41:01;4.60;;;4.20;;
8978;SDS011;4524;51.364;5.448;2022-11-13T12:43:57;5.00;;;4.00;;
8978;SDS011;4524;51.364;5.448;2022-11-13T12:47:00;5.00;;;4.10;;
8978;SDS011;4524;51.364;5.448;2022-11-13T12:49:56;4.13;;;3.70;;
8978;SDS011;4524;51.364;5.448;2022-11-13T12:52:44;4.90;;;3.83;;
8978;SDS011;4524;51.364;5.448;2022-11-13T12:55:41;4.70;;;3.70;;
8978;SDS011;4524;51.364;5.448;2022-11-13T12:58:29;4.07;;;3.67;;
8978;SDS011;4524;51.364;5.448;2022-11-13T13:01:17;4.37;;;3.60;;
8978;SDS011;4524;51.364;5.448;2022-11-13T13:04:16;4.40;;;4.00;;
8978;SDS011;4524;51.364;5.448;2022-11-13T13:07:22;4.03;;;3.60;;
8978;SDS011;4524;51.364;5.448;2022-11-13T13:10:22;4.07;;;3.67;;
8978;SDS011;4524;51.364;5.448;2022-11-13T13:13:19;3.93;;;3.37;;
8978;SDS011;4524;51.364;5.448;2022-11-13T13:16:18;4.33;;;3.40;;
8978;SDS011;4524;51.364;5.448;2022-11-13T13:19:19;6.00;;;3.50;;
8978;SDS011;4524;51.364;5.448;2022-11-13T13:22:23;4.37;;;3.97;;
8978;SDS011;4524;51.364;5.448;2022-11-13T13:25:22;6.03;;;4.10;;
8978;SDS011;4524;51.364;5.448;2022-11-13T13:28:16;4.33;;;3.97;;
8978;SDS011;4524;51.364;5.448;2022-11-13T13:31:08;5.63;;;3.80;;
8978;SDS011;4524;51.364;5.448;2022-11-13T13:34:04;5.27;;;3.90;;
8978;SDS011;4524;51.364;5.448;2022-11-13T13:37:09;3.87;;;3.57;;
8978;SDS011;4524;51.364;5.448;2022-11-13T13:40:08;4.10;;;3.60;;
8978;SDS011;4524;51.364;5.448;2022-11-13T13:43:13;3.80;;;3.50;;
8978;SDS011;4524;51.364;5.448;2022-11-13T13:46:12;4.17;;;3.77;;
8978;SDS011;4524;51.364;5.448;2022-11-13T13:49:01;5.33;;;3.90;;
8978;SDS011;4524;51.364;5.448;2022-11-13T13:51:53;4.30;;;3.90;;
8978;SDS011;4524;51.364;5.448;2022-11-13T13:54:43;4.40;;;3.90;;
8978;SDS011;4524;51.364;5.448;2022-11-13T13:57:30;3.97;;;3.67;;
8978;SDS011;4524;51.364;5.448;2022-11-13T14:00:17;5.63;;;3.90;;
8978;SDS011;4524;51.364;5.448;2022-11-13T14:03:13;4.07;;;3.50;;
8978;SDS011;4524;51.364;5.448;2022-11-13T14:06:08;8.10;;;3.97;;
8978;SDS011;4524;51.364;5.448;2022-11-13T14:09:05;4.03;;;3.63;;
8978;SDS011;4524;51.364;5.448;2022-11-13T14:11:57;3.43;;;3.13;;
8978;SDS011;4524;51.364;5.448;2022-11-13T14:14:51;4.90;;;3.50;;
8978;SDS011;4524;51.364;5.448;2022-11-13T14:17:38;5.13;;;3.50;;
8978;SDS011;4524;51.364;5.448;2022-11-13T14:20:24;3.43;;;3.10;;
8978;SDS011;4524;51.364;5.448;2022-11-13T14:23:12;5.40;;;3.47;;
8978;SDS011;4524;51.364;5.448;2022-11-13T14:26:03;3.90;;;2.97;;
8978;SDS011;4524;51.364;5.448;2022-11-13T14:28:53;4.20;;;3.20;;
8978;SDS011;4524;51.364;5.448;2022-11-13T14:31:42;3.67;;;3.03;;
8978;SDS011;4524;51.364;5.448;2022-11-13T14:34:30;3.50;;;2.60;;
8978;SDS011;4524;51.364;5.448;2022-11-13T14:37:19;5.93;;;3.00;;
8978;SDS011;4524;51.364;5.448;2022-11-13T14:40:12;4.57;;;2.90;;
8978;SDS011;4524;51.364;5.448;2022-11-13T14:43:04;4.03;;;2.50;;
8978;SDS011;4524;51.364;5.448;2022-11-13T14:45:54;5.90;;;2.87;;
8978;SDS011;4524;51.364;5.448;2022-11-13T14:48:49;2.90;;;2.60;;
8978;SDS011;4524;51.364;5.448;2022-11-13T14:51:37;3.07;;;2.77;;
8978;SDS011;4524;51.364;5.448;2022-11-13T14:54:31;3.47;;;2.60;;
8978;SDS011;4524;51.364;5.448;2022-11-13T14:57:45;4.87;;;2.80;;
8978;SDS011;4524;51.364;5.448;2022-11-13T15:00:34;3.93;;;3.07;;
8978;SDS011;4524;51.364;5.448;2022-11-13T15:03:22;3.93;;;3.00;;
8978;SDS011;4524;51.364;5.448;2022-11-13T15:06:13;4.70;;;2.87;;
8978;SDS011;4524;51.364;5.448;2022-11-13T15:09:00;3.20;;;2.90;;
8978;SDS011;4524;51.364;5.448;2022-11-13T15:11:49;6.07;;;3.00;;
8978;SDS011;4524;51.364;5.448;2022-11-13T15:14:35;5.80;;;3.23;;
8978;SDS011;4524;51.364;5.448;2022-11-13T15:17:24;4.40;;;3.10;;
8978;SDS011;4524;51.364;5.448;2022-11-13T15:20:13;3.70;;;2.80;;
8978;SDS011;4524;51.364;5.448;2022-11-13T15:23:02;3.63;;;2.93;;
8978;SDS011;4524;51.364;5.448;2022-11-13T15:25:48;3.40;;;3.10;;
8978;SDS011;4524;51.364;5.448;2022-11-13T15:28:35;2.97;;;2.53;;
8978;SDS011;4524;51.364;5.448;2022-11-13T15:31:23;7.10;;;2.70;;
8978;SDS011;4524;51.364;5.448;2022-11-13T15:34:13;3.63;;;2.90;;
8978;SDS011;4524;51.364;5.448;2022-11-13T15:37:04;4.33;;;2.83;;
8978;SDS011;4524;51.364;5.448;2022-11-13T15:39:55;3.77;;;2.87;;
8978;SDS011;4524;51.364;5.448;2022-11-13T15:42:42;6.50;;;2.80;;
8978;SDS011;4524;51.364;5.448;2022-11-13T15:45:28;4.07;;;3.00;;
8978;SDS011;4524;51.364;5.448;2022-11-13T15:48:15;4.00;;;3.37;;
8978;SDS011;4524;51.364;5.448;2022-11-13T15:51:01;3.87;;;3.47;;
8978;SDS011;4524;51.364;5.448;2022-11-13T15:53:50;4.68;;;3.70;;
8978;SDS011;4524;51.364;5.448;2022-11-13T15:56:39;7.67;;;3.97;;
8978;SDS011;4524;51.364;5.448;2022-11-13T15:59:27;5.33;;;3.73;;
8978;SDS011;4524;51.364;5.448;2022-11-13T16:02:13;6.50;;;4.17;;
8978;SDS011;4524;51.364;5.448;2022-11-13T16:05:00;4.97;;;3.57;;
8978;SDS011;4524;51.364;5.448;2022-11-13T16:07:46;4.83;;;3.80;;
8978;SDS011;4524;51.364;5.448;2022-11-13T16:10:35;6.30;;;4.50;;
8978;SDS011;4524;51.364;5.448;2022-11-13T16:13:21;8.07;;;4.87;;
8978;SDS011;4524;51.364;5.448;2022-11-13T16:16:08;4.63;;;4.13;;
8978;SDS011;4524;51.364;5.448;2022-11-13T16:18:59;5.77;;;4.37;;
8978;SDS011;4524;51.364;5.448;2022-11-13T16:21:45;8.97;;;4.80;;
8978;SDS011;4524;51.364;5.448;2022-11-13T16:24:32;8.80;;;4.90;;
8978;SDS011;4524;51.364;5.448;2022-11-13T16:27:22;8.77;;;4.70;;
8978;SDS011;4524;51.364;5.448;2022-11-13T16:30:12;6.10;;;5.20;;
8978;SDS011;4524;51.364;5.448;2022-11-13T16:33:00;7.37;;;5.03;;
8978;SDS011;4524;51.364;5.448;2022-11-13T16:35:49;6.77;;;4.80;;
8978;SDS011;4524;51.364;5.448;2022-11-13T16:38:35;5.73;;;5.13;;
8978;SDS011;4524;51.364;5.448;2022-11-13T16:41:22;7.27;;;4.70;;
8978;SDS011;4524;51.364;5.448;2022-11-13T16:44:10;6.27;;;4.60;;
8978;SDS011;4524;51.364;5.448;2022-11-13T16:46:57;7.60;;;5.00;;
8978;SDS011;4524;51.364;5.448;2022-11-13T16:49:43;7.10;;;5.47;;
8978;SDS011;4524;51.364;5.448;2022-11-13T16:52:30;9.97;;;8.67;;
8978;SDS011;4524;51.364;5.448;2022-11-13T16:55:18;8.83;;;6.27;;
8978;SDS011;4524;51.364;5.448;2022-11-13T16:58:04;7.77;;;6.93;;
8978;SDS011;4524;51.364;5.448;2022-11-13T17:00:52;10.40;;;7.70;;
8978;SDS011;4524;51.364;5.448;2022-11-13T17:03:44;7.90;;;6.43;;
8978;SDS011;4524;51.364;5.448;2022-11-13T17:06:31;8.40;;;7.60;;
8978;SDS011;4524;51.364;5.448;2022-11-13T17:09:19;9.77;;;7.00;;
8978;SDS011;4524;51.364;5.448;2022-11-13T17:12:05;6.97;;;6.33;;
8978;SDS011;4524;51.364;5.448;2022-11-13T17:14:52;7.30;;;5.70;;
8978;SDS011;4524;51.364;5.448;2022-11-13T17:17:40;7.43;;;5.77;;
8978;SDS011;4524;51.364;5.448;2022-11-13T17:20:27;6.50;;;5.27;;
8978;SDS011;4524;51.364;5.448;2022-11-13T17:23:14;6.23;;;5.50;;
8978;SDS011;4524;51.364;5.448;2022-11-13T17:26:01;7.50;;;5.60;;
8978;SDS011;4524;51.364;5.448;2022-11-13T17:28:48;9.60;;;5.47;;